createdAt,value
2022-09-05T00:00:35.901Z,101647.94
2022-09-05T00:03:22.955Z,101656.38
2022-09-05T00:06:06.431Z,101655.38
2022-09-05T00:08:53.477Z,101657.41
2022-09-05T00:11:40.626Z,101653.09
2022-09-05T00:15:16.489Z,101659.19
2022-09-05T00:19:55.980Z,101651.63
2022-09-05T00:24:28.687Z,101643.53
2022-09-05T00:24:29.812Z,101652.59
2022-09-05T00:27:20.028Z,101645.19
2022-09-05T00:31:07.199Z,101644.34
2022-09-05T00:33:24.182Z,101652.44
2022-09-05T00:36:23.792Z,101650.75
2022-09-05T00:39:07.529Z,101654.16
2022-09-05T00:41:50.793Z,101661.91
2022-09-05T00:44:34.564Z,101652.53
2022-09-05T00:47:19.977Z,101656.06
2022-09-05T00:50:03.383Z,101655.59
2022-09-05T00:52:52.948Z,101658.28
2022-09-05T00:55:57.944Z,101664.69
2022-09-05T00:58:51.056Z,101653.63
2022-09-05T01:01:33.612Z,101656.31
2022-09-05T01:04:26.407Z,101661.41
2022-09-05T01:07:23.533Z,101651.66
2022-09-05T01:10:12.037Z,101656.38
2022-09-05T01:13:15.128Z,101657.41
2022-09-05T01:16:16.054Z,101659.44
2022-09-05T01:19:06.504Z,101660.47
2022-09-05T01:21:54.521Z,101662.97
2022-09-05T01:24:51.126Z,101660.59
2022-09-05T01:29:13.813Z,101655.75
2022-09-05T01:30:44.703Z,101651.41
2022-09-05T01:33:32.421Z,101657.09
2022-09-05T01:36:22.200Z,101649.44
2022-09-05T01:40:12.589Z,101646.75
2022-09-05T01:42:10.319Z,101645.72
2022-09-05T01:44:57.858Z,101655.47
2022-09-05T01:47:49.555Z,101646.75
2022-09-05T01:50:40.570Z,101657.16
2022-09-05T01:53:34.735Z,101643.91
2022-09-05T01:56:34.486Z,101641.38
2022-09-05T01:59:24.517Z,101641.22
2022-09-05T02:02:17.174Z,101648.66
2022-09-05T02:05:07.507Z,101647.63
2022-09-05T02:08:07.499Z,101652.19
2022-09-05T02:10:56.446Z,101648.47
2022-09-05T02:14:01.285Z,101648.81
2022-09-05T02:16:45.023Z,101657.91
2022-09-05T02:19:27.160Z,101651.19
2022-09-05T02:22:11.658Z,101652.25
2022-09-05T02:25:30.236Z,101649.06
2022-09-05T02:28:10.772Z,101650.59
2022-09-05T02:31:19.225Z,101644.69
2022-09-05T02:34:02.397Z,101648.88
2022-09-05T02:36:46.088Z,101633.13
2022-09-05T02:45:04.306Z,101641.69
2022-09-05T02:45:10.985Z,101637.81
2022-09-05T02:45:46.147Z,101630.13
2022-09-05T02:48:30.050Z,101633.00
2022-09-05T02:57:29.247Z,101631.81
2022-09-05T02:57:37.623Z,101633.66
2022-09-05T02:58:06.137Z,101631.47
2022-09-05T03:00:39.217Z,101630.31
2022-09-05T03:03:28.392Z,101629.44
2022-09-05T03:06:14.011Z,101633.81
2022-09-05T03:09:34.099Z,101630.28
2022-09-05T03:12:48.489Z,101633.81
2022-09-05T03:16:05.996Z,101626.09
2022-09-05T03:19:19.980Z,101628.28
2022-09-05T03:22:36.179Z,101628.97
2022-09-05T03:25:36.114Z,101631.78
2022-09-05T03:28:55.321Z,101634.16
2022-09-05T03:31:51.347Z,101632.13
2022-09-05T03:34:48.172Z,101636.84
2022-09-05T03:37:45.585Z,101635.00
2022-09-05T03:40:42.218Z,101625.09
2022-09-05T03:43:40.163Z,101630.94
2022-09-05T03:46:42.082Z,101629.13
2022-09-05T03:51:07.937Z,101638.16
2022-09-05T03:57:13.503Z,101635.47
2022-09-05T03:57:24.262Z,101639.84
2022-09-05T03:59:09.492Z,101646.88
2022-09-05T04:03:17.906Z,101648.25
2022-09-05T04:08:31.680Z,101642.69
2022-09-05T04:08:31.962Z,101646.38
2022-09-05T04:11:11.505Z,101645.72
2022-09-05T04:13:56.658Z,101640.84
2022-09-05T04:16:47.638Z,101642.53
2022-09-05T04:19:32.937Z,101656.59
2022-09-05T04:22:23.884Z,101652.91
2022-09-05T04:25:17.546Z,101659.63
2022-09-05T04:28:08.051Z,101652.25
2022-09-05T04:30:50.190Z,101653.94
2022-09-05T04:33:37.328Z,101655.44
2022-09-05T04:36:22.185Z,101656.63
2022-09-05T04:39:11.450Z,101662.31
2022-09-05T04:41:52.736Z,101657.78
2022-09-05T04:44:36.515Z,101661.97
2022-09-05T04:47:21.622Z,101667.53
2022-09-05T04:50:08.209Z,101668.88
2022-09-05T04:53:09.305Z,101669.00
2022-09-05T04:55:57.738Z,101673.38
2022-09-05T04:58:45.646Z,101674.38
2022-09-05T05:06:16.121Z,101680.44
2022-09-05T05:06:16.674Z,101673.56
2022-09-05T05:07:50.731Z,101679.94
2022-09-05T05:16:00.298Z,101689.16
2022-09-05T05:18:08.808Z,101676.41
2022-09-05T05:18:11.156Z,101676.25
2022-09-05T05:20:40.168Z,101687.16
2022-09-05T05:23:32.158Z,101692.84
2022-09-05T05:26:22.001Z,101692.34
2022-09-05T05:29:05.416Z,101699.91
2022-09-05T05:31:50.654Z,101702.94
2022-09-05T05:34:34.178Z,101695.88
2022-09-05T05:37:18.808Z,101692.34
2022-09-05T05:40:06.596Z,101691.00
2022-09-05T05:42:47.253Z,101693.53
2022-09-05T05:45:30.815Z,101697.06
2022-09-05T05:48:28.880Z,101705.75
2022-09-05T05:51:36.420Z,101700.03
2022-09-05T05:54:28.985Z,101700.06
2022-09-05T05:57:41.496Z,101699.72
2022-09-05T06:00:27.662Z,101702.06
2022-09-05T06:03:39.830Z,101702.88
2022-09-05T06:06:55.535Z,101700.50
2022-09-05T06:14:48.197Z,101707.34
2022-09-05T06:14:57.249Z,101702.97
2022-09-05T06:17:15.415Z,101709.16
2022-09-05T06:22:03.977Z,101704.25
2022-09-05T06:24:12.212Z,101710.75
2022-09-05T06:27:33.339Z,101712.06
2022-09-05T06:30:20.120Z,101718.88
2022-09-05T06:33:11.137Z,101721.72
2022-09-05T06:36:07.891Z,101725.00
2022-09-05T06:38:59.680Z,101731.47
2022-09-05T06:41:45.122Z,101724.16
2022-09-05T06:44:48.891Z,101727.09
2022-09-05T06:47:33.931Z,101727.41
2022-09-05T06:50:53.231Z,101727.00
2022-09-05T06:54:00.234Z,101723.97
2022-09-05T06:56:57.620Z,101725.44
2022-09-05T07:00:02.233Z,101724.06
2022-09-05T07:02:59.524Z,101728.94
2022-09-05T07:05:45.042Z,101728.16
2022-09-05T07:08:34.763Z,101727.75
2022-09-05T07:11:19.860Z,101736.72
2022-09-05T07:14:04.153Z,101728.09
2022-09-05T07:16:49.786Z,101737.06
2022-09-05T07:19:33.067Z,101732.88
2022-09-05T07:22:47.893Z,101731.50
2022-09-05T07:25:26.362Z,101733.09
2022-09-05T07:28:29.136Z,101744.03
2022-09-05T07:31:27.539Z,101741.84
2022-09-05T07:34:20.755Z,101751.69
2022-09-05T07:37:15.561Z,101749.75
2022-09-05T07:40:05.313Z,101749.78
2022-09-05T07:43:09.758Z,101758.00
2022-09-05T07:46:02.079Z,101763.19
2022-09-05T07:48:45.675Z,101758.47
2022-09-05T07:54:59.162Z,101767.75
2022-09-05T07:56:55.403Z,101764.00
2022-09-05T07:57:52.241Z,101763.81
2022-09-05T08:00:36.131Z,101756.28
2022-09-05T08:03:16.982Z,101757.16
2022-09-05T08:06:00.645Z,101742.94
2022-09-05T08:09:18.512Z,101759.53
2022-09-05T08:11:53.749Z,101753.66
2022-09-05T08:14:45.066Z,101756.75
2022-09-05T08:17:30.335Z,101751.44
2022-09-05T08:20:24.994Z,101753.06
2022-09-05T08:23:11.454Z,101765.97
2022-09-05T08:25:58.066Z,101755.13
2022-09-05T08:28:44.395Z,101753.31
2022-09-05T08:31:32.534Z,101755.88
2022-09-05T08:34:45.234Z,101758.06
2022-09-05T08:37:27.195Z,101758.78
2022-09-05T08:40:10.538Z,101752.53
2022-09-05T08:44:19.573Z,101750.69
2022-09-05T08:46:40.132Z,101746.63
2022-09-05T08:49:37.935Z,101740.81
2022-09-05T08:52:42.577Z,101741.47
2022-09-05T08:55:31.528Z,101744.63
2022-09-05T08:58:30.996Z,101747.53
2022-09-05T09:01:15.832Z,101739.38
2022-09-05T09:04:11.723Z,101738.94
2022-09-05T09:07:48.044Z,101742.00
2022-09-05T09:10:26.427Z,101742.03
2022-09-05T09:13:20.225Z,101736.28
2022-09-05T09:16:04.703Z,101730.13
2022-09-05T09:19:05.271Z,101723.34
2022-09-05T09:21:55.057Z,101728.84
2022-09-05T09:24:44.247Z,101720.50
2022-09-05T09:28:48.242Z,101719.16
2022-09-05T09:30:48.818Z,101717.78
2022-09-05T09:33:48.098Z,101725.25
2022-09-05T09:37:03.416Z,101711.13
2022-09-05T09:40:00.410Z,101719.09
2022-09-05T09:42:47.651Z,101718.56
2022-09-05T09:45:41.394Z,101708.50
2022-09-05T09:48:51.658Z,101706.94
2022-09-05T09:51:52.154Z,101703.50
2022-09-05T09:54:47.355Z,101704.28
2022-09-05T09:58:01.933Z,101713.41
2022-09-05T10:00:51.143Z,101709.13
2022-09-05T10:10:40.223Z,101702.19
2022-09-05T10:10:54.221Z,101708.22
2022-09-05T10:11:17.906Z,101700.03
2022-09-05T10:13:41.899Z,101707.94
2022-09-05T10:16:38.365Z,101697.09
2022-09-05T10:22:57.896Z,101688.16
2022-09-05T10:26:05.528Z,101690.31
2022-09-05T10:28:56.704Z,101690.91
2022-09-05T10:34:39.485Z,101682.88
2022-09-05T10:35:08.087Z,101682.38
2022-09-05T10:38:10.255Z,101682.38
2022-09-05T10:41:22.107Z,101681.00
2022-09-05T10:44:03.535Z,101670.06
2022-09-05T10:46:54.941Z,101669.78
2022-09-05T10:49:39.684Z,101664.66
2022-09-05T10:52:23.307Z,101662.34
2022-09-05T10:55:15.530Z,101667.47
2022-09-05T10:58:01.547Z,101663.28
2022-09-05T11:02:26.641Z,101663.66
2022-09-05T11:04:13.713Z,101664.72
2022-09-05T11:06:57.347Z,101652.31
2022-09-05T11:09:56.159Z,101645.47
2022-09-05T11:12:57.359Z,101640.19
2022-09-05T11:16:04.295Z,101646.19
2022-09-05T11:18:57.334Z,101649.66
2022-09-05T11:22:19.894Z,101637.38
2022-09-05T11:24:57.002Z,101632.28
2022-09-05T11:27:40.979Z,101633.47
2022-09-05T11:30:28.539Z,101634.69
2022-09-05T11:39:51.050Z,101633.41
2022-09-05T11:40:06.361Z,101630.09
2022-09-05T11:40:31.209Z,101634.69
2022-09-05T11:43:49.954Z,101620.22
2022-09-05T11:47:43.622Z,101611.03
2022-09-05T11:50:49.840Z,101614.63
2022-09-05T11:54:00.536Z,101616.84
2022-09-05T11:57:02.202Z,101606.22
2022-09-05T12:00:31.666Z,101605.06
2022-09-05T12:03:57.995Z,101608.47
2022-09-05T12:07:00.573Z,101605.59
2022-09-05T12:09:50.291Z,101609.78
2022-09-05T12:12:39.348Z,101601.66
2022-09-05T12:15:27.350Z,101595.97
2022-09-05T12:18:19.343Z,101598.22
2022-09-05T12:21:25.216Z,101595.41
2022-09-05T12:24:54.990Z,101595.97
2022-09-05T12:27:36.994Z,101591.88
2022-09-05T12:30:36.296Z,101580.91
2022-09-05T12:36:02.573Z,101586.91
2022-09-05T12:40:53.800Z,101579.22
2022-09-05T12:41:42.573Z,101580.06
2022-09-05T12:44:04.637Z,101581.41
2022-09-05T12:45:50.468Z,101572.00
2022-09-05T12:48:55.730Z,101568.03
2022-09-05T12:51:45.086Z,101567.09
2022-09-05T12:54:34.250Z,101570.44
2022-09-05T13:02:55.091Z,101564.31
2022-09-05T13:03:13.412Z,101566.97
2022-09-05T13:03:29.845Z,101560.47
2022-09-05T13:06:25.687Z,101566.00
2022-09-05T13:09:10.453Z,101561.59
2022-09-05T13:14:56.430Z,101547.88
2022-09-05T13:15:18.799Z,101544.59
2022-09-05T13:18:07.363Z,101540.63
2022-09-05T13:20:51.331Z,101536.03
2022-09-05T13:23:39.690Z,101526.97
2022-09-05T13:26:25.384Z,101528.38
2022-09-05T13:29:13.672Z,101529.31
2022-09-05T13:38:03.378Z,101527.16
2022-09-05T13:38:04.871Z,101531.69
2022-09-05T13:38:48.445Z,101517.78
2022-09-05T13:41:30.709Z,101522.91
2022-09-05T13:44:25.306Z,101521.19
2022-09-05T13:47:29.016Z,101519.00
2022-09-05T13:50:23.020Z,101517.34
2022-09-05T13:53:06.076Z,101509.50
2022-09-05T13:55:53.889Z,101515.31
2022-09-05T13:59:01.960Z,101507.69
2022-09-05T14:02:25.446Z,101515.75
2022-09-05T14:05:22.991Z,101508.09
2022-09-05T14:08:33.474Z,101511.06
2022-09-05T14:11:44.980Z,101503.69
2022-09-05T14:17:51.960Z,101504.78
2022-09-05T14:20:54.460Z,101500.19
2022-09-05T14:23:48.474Z,101505.41
2022-09-05T14:26:32.601Z,101492.72
2022-09-05T14:29:17.210Z,101496.44
2022-09-05T14:37:49.609Z,101494.72
2022-09-05T14:37:54.003Z,101503.56
2022-09-05T14:38:51.077Z,101493.91
2022-09-05T14:41:44.216Z,101485.44
2022-09-05T14:45:07.611Z,101492.94
2022-09-05T14:48:13.263Z,101496.41
2022-09-05T14:51:25.720Z,101493.66
2022-09-05T15:02:38.595Z,101481.19
2022-09-05T15:02:51.035Z,101483.47
2022-09-05T15:07:05.101Z,101489.28
2022-09-05T15:12:18.428Z,101483.88
2022-09-05T15:12:52.864Z,101477.25
2022-09-05T15:16:02.731Z,101485.63
2022-09-05T15:18:45.545Z,101476.34
2022-09-05T15:21:47.664Z,101471.69
2022-09-05T15:24:30.176Z,101477.66
2022-09-05T15:27:17.158Z,101476.59
2022-09-05T15:30:01.306Z,101466.84
2022-09-05T15:32:42.520Z,101470.97
2022-09-05T15:35:37.669Z,101473.03
2022-09-05T15:38:23.781Z,101469.91
2022-09-05T15:41:17.189Z,101477.16
2022-09-05T15:44:03.350Z,101469.47
2022-09-05T15:46:47.379Z,101468.31
2022-09-05T15:49:32.443Z,101462.88
2022-09-05T15:52:32.242Z,101463.34
2022-09-05T15:55:15.845Z,101462.19
2022-09-05T15:57:58.092Z,101450.44
2022-09-05T16:00:41.971Z,101451.28
2022-09-05T16:07:47.333Z,101448.88
2022-09-05T16:10:31.872Z,101444.13
2022-09-05T16:10:45.523Z,101456.69
2022-09-05T16:12:45.087Z,101457.16
2022-09-05T16:21:01.056Z,101451.44
2022-09-05T16:23:20.946Z,101455.94
2022-09-05T16:23:34.272Z,101455.09
2022-09-05T16:25:03.046Z,101445.09
2022-09-05T16:27:53.525Z,101447.50
2022-09-05T16:30:36.726Z,101450.09
2022-09-05T16:33:19.667Z,101450.38
2022-09-05T16:36:05.759Z,101437.22
2022-09-05T16:39:11.770Z,101438.78
2022-09-05T16:41:54.676Z,101442.97
2022-09-05T16:44:40.081Z,101440.09
2022-09-05T16:47:25.348Z,101439.75
2022-09-05T16:50:16.644Z,101436.53
2022-09-05T16:53:02.987Z,101427.53
2022-09-05T16:56:08.957Z,101427.09
2022-09-05T16:58:50.663Z,101435.97
2022-09-05T17:02:05.659Z,101431.00
2022-09-05T17:05:06.011Z,101436.00
2022-09-05T17:08:01.483Z,101437.09
2022-09-05T17:10:52.905Z,101433.06
2022-09-05T17:13:43.530Z,101438.25
2022-09-05T17:16:28.959Z,101433.28
2022-09-05T17:19:14.292Z,101436.84
2022-09-05T17:23:32.005Z,101433.53
2022-09-05T17:29:31.059Z,101442.41
2022-09-05T17:30:35.874Z,101439.69
2022-09-05T17:31:55.044Z,101440.72
2022-09-05T17:34:51.507Z,101440.28
2022-09-05T17:38:11.153Z,101441.78
2022-09-05T17:41:20.576Z,101438.22
2022-09-05T17:44:07.328Z,101449.50
2022-09-05T17:47:01.142Z,101452.22
2022-09-05T17:49:44.792Z,101445.69
2022-09-05T17:52:24.969Z,101451.19
2022-09-05T17:55:15.131Z,101454.38
2022-09-05T17:58:21.222Z,101453.66
2022-09-05T18:01:15.975Z,101454.00
2022-09-05T18:04:16.303Z,101461.03
2022-09-05T18:07:01.134Z,101458.63
2022-09-05T18:10:00.051Z,101456.03
2022-09-05T18:13:13.316Z,101454.53
2022-09-05T18:16:12.293Z,101457.84
2022-09-05T18:19:32.652Z,101460.44
2022-09-05T18:21:57.585Z,101454.28
2022-09-05T18:24:42.402Z,101465.16
2022-09-05T18:27:43.978Z,101464.78
2022-09-05T18:33:45.604Z,101470.59
2022-09-05T18:36:35.692Z,101470.69
2022-09-05T18:39:42.353Z,101464.66
2022-09-05T18:42:33.359Z,101469.31
2022-09-05T18:45:16.406Z,101471.25
2022-09-05T18:48:00.155Z,101477.34
2022-09-05T18:50:46.537Z,101478.69
2022-09-05T18:53:48.404Z,101479.53
2022-09-05T18:56:33.368Z,101485.00
2022-09-05T18:59:17.135Z,101484.34
2022-09-05T19:02:08.910Z,101496.94
2022-09-05T19:05:15.818Z,101497.78
2022-09-05T19:07:59.780Z,101497.38
2022-09-05T19:10:42.578Z,101493.84
2022-09-05T19:13:31.861Z,101498.94
2022-09-05T19:16:42.712Z,101502.69
2022-09-05T19:19:18.315Z,101494.78
2022-09-05T19:23:08.775Z,101497.13
2022-09-05T19:25:19.367Z,101501.94
2022-09-05T19:33:53.157Z,101502.78
2022-09-05T19:36:53.901Z,101501.13
2022-09-05T19:36:54.022Z,101506.16
2022-09-05T19:37:30.443Z,101501.56
2022-09-05T19:43:53.985Z,101499.69
2022-09-05T19:47:30.807Z,101500.31
2022-09-05T19:47:55.772Z,101499.28
2022-09-05T19:49:25.831Z,101492.84
2022-09-05T19:52:15.825Z,101495.75
2022-09-05T19:54:54.583Z,101497.03
2022-09-05T19:57:36.140Z,101490.78
2022-09-05T20:00:22.377Z,101500.38
2022-09-05T20:03:01.803Z,101497.88
2022-09-05T20:05:42.304Z,101502.03
2022-09-05T20:08:33.064Z,101497.47
2022-09-05T20:11:13.006Z,101502.91
2022-09-05T20:13:53.955Z,101495.81
2022-09-05T20:16:56.931Z,101496.63
2022-09-05T20:19:37.253Z,101494.97
2022-09-05T20:22:47.767Z,101489.53
2022-09-05T20:25:36.070Z,101495.34
2022-09-05T20:28:21.010Z,101504.94
2022-09-05T20:31:03.874Z,101496.59
2022-09-05T20:33:52.170Z,101498.06
2022-09-05T20:43:19.023Z,101489.94
2022-09-05T20:43:21.191Z,101494.91
2022-09-05T20:43:25.125Z,101502.22
2022-09-05T20:46:05.246Z,101502.41
2022-09-05T20:54:06.925Z,101506.53
2022-09-05T20:54:15.844Z,101502.78
2022-09-05T20:54:49.152Z,101500.72
2022-09-05T20:57:32.505Z,101489.91
2022-09-05T21:00:20.436Z,101484.50
2022-09-05T21:03:02.321Z,101488.22
2022-09-05T21:05:45.524Z,101474.88
2022-09-05T21:08:33.072Z,101475.72
2022-09-05T21:11:13.596Z,101473.63
2022-09-05T21:13:53.459Z,101478.00
2022-09-05T21:16:35.474Z,101473.63
2022-09-05T21:19:25.327Z,101483.97
2022-09-05T21:22:09.487Z,101482.69
2022-09-05T21:24:48.530Z,101483.09
2022-09-05T21:27:27.879Z,101480.59
2022-09-05T21:30:23.504Z,101491.16
2022-09-05T21:33:20.750Z,101490.94
2022-09-05T21:36:11.819Z,101493.84
2022-09-05T21:38:51.950Z,101489.06
2022-09-05T21:41:31.702Z,101485.53
2022-09-05T21:47:38.174Z,101496.53
2022-09-05T21:47:42.548Z,101486.31
2022-09-05T21:50:30.699Z,101480.25
2022-09-05T21:54:36.545Z,101479.66
2022-09-05T21:59:18.105Z,101477.56
2022-09-05T22:02:28.646Z,101461.13
2022-09-05T22:05:10.363Z,101454.63
2022-09-05T22:07:54.368Z,101455.25
2022-09-05T22:10:51.740Z,101444.22
2022-09-05T22:13:32.808Z,101443.38
2022-09-05T22:16:14.585Z,101452.53
2022-09-05T22:18:56.023Z,101449.56
2022-09-05T22:21:38.706Z,101441.22
2022-09-05T22:24:18.536Z,101438.88
2022-09-05T22:27:11.238Z,101436.63
2022-09-05T22:29:52.828Z,101441.84
2022-09-05T22:32:34.219Z,101435.34
2022-09-05T22:35:28.384Z,101431.25
2022-09-05T22:38:19.273Z,101431.75
2022-09-05T22:41:00.539Z,101437.41
2022-09-05T22:43:42.291Z,101432.38
2022-09-05T22:46:22.955Z,101429.69
2022-09-05T22:49:05.095Z,101436.13
2022-09-05T22:51:44.508Z,101420.94
2022-09-05T22:54:24.344Z,101417.81
2022-09-05T22:57:04.832Z,101413.25
2022-09-05T22:59:45.948Z,101415.75
2022-09-05T23:02:25.377Z,101411.59
2022-09-05T23:05:04.778Z,101410.75
2022-09-05T23:07:44.963Z,101402.06
2022-09-05T23:10:24.818Z,101406.81
2022-09-05T23:13:06.107Z,101402.88
2022-09-05T23:15:46.073Z,101405.38
2022-09-05T23:18:26.096Z,101399.13
2022-09-05T23:21:07.244Z,101389.56
2022-09-05T23:23:47.304Z,101402.88
2022-09-05T23:26:26.897Z,101387.06
2022-09-05T23:29:06.676Z,101388.06
2022-09-05T23:31:46.438Z,101381.84
2022-09-05T23:34:28.247Z,101384.13
2022-09-05T23:37:09.438Z,101370.00
2022-09-05T23:40:04.389Z,101371.66
2022-09-05T23:42:51.858Z,101372.06
2022-09-05T23:45:32.758Z,101366.03
2022-09-05T23:48:13.317Z,101365.41
2022-09-05T23:50:52.990Z,101350.66
2022-09-05T23:53:34.853Z,101346.84
2022-09-05T23:56:14.133Z,101353.69
2022-09-05T23:58:53.980Z,101351.81
